sensor_id;sensor_type;location;lat;lon;timestamp;P1;durP1;ratioP1;P2;durP2;ratioP2
56005;SDS011;41888;44.696;10.522;2022-10-19T00:00:11;51.83;;;26.85;;
56005;SDS011;41888;44.696;10.522;2022-10-19T00:02:37;51.85;;;25.35;;
56005;SDS011;41888;44.696;10.522;2022-10-19T00:05:04;51.15;;;25.23;;
56005;SDS011;41888;44.696;10.522;2022-10-19T00:07:30;54.13;;;27.50;;
56005;SDS011;41888;44.696;10.522;2022-10-19T00:09:57;58.85;;;24.75;;
56005;SDS011;41888;44.696;10.522;2022-10-19T00:12:23;53.10;;;26.80;;
56005;SDS011;41888;44.696;10.522;2022-10-19T00:14:49;51.63;;;25.23;;
56005;SDS011;41888;44.696;10.522;2022-10-19T00:17:16;50.80;;;24.75;;
56005;SDS011;41888;44.696;10.522;2022-10-19T00:19:42;52.60;;;26.80;;
56005;SDS011;41888;44.696;10.522;2022-10-19T00:22:08;51.80;;;25.15;;
56005;SDS011;41888;44.696;10.522;2022-10-19T00:24:34;46.28;;;23.60;;
56005;SDS011;41888;44.696;10.522;2022-10-19T00:27:00;51.55;;;24.60;;
56005;SDS011;41888;44.696;10.522;2022-10-19T00:29:26;57.63;;;27.92;;
56005;SDS011;41888;44.696;10.522;2022-10-19T00:31:53;53.83;;;26.52;;
56005;SDS011;41888;44.696;10.522;2022-10-19T00:34:19;59.28;;;27.15;;
56005;SDS011;41888;44.696;10.522;2022-10-19T00:36:46;52.47;;;24.23;;
56005;SDS011;41888;44.696;10.522;2022-10-19T00:39:13;58.25;;;26.73;;
56005;SDS011;41888;44.696;10.522;2022-10-19T00:41:41;55.72;;;28.17;;
56005;SDS011;41888;44.696;10.522;2022-10-19T00:46:43;55.13;;;25.48;;
56005;SDS011;41888;44.696;10.522;2022-10-19T00:49:14;54.22;;;27.27;;
56005;SDS011;41888;44.696;10.522;2022-10-19T00:51:54;61.75;;;27.55;;
56005;SDS011;41888;44.696;10.522;2022-10-19T00:54:30;55.38;;;28.58;;
56005;SDS011;41888;44.696;10.522;2022-10-19T00:56:57;53.78;;;25.95;;
56005;SDS011;41888;44.696;10.522;2022-10-19T00:59:25;53.03;;;26.42;;
56005;SDS011;41888;44.696;10.522;2022-10-19T01:01:52;58.92;;;27.27;;
56005;SDS011;41888;44.696;10.522;2022-10-19T01:04:20;52.10;;;26.33;;
56005;SDS011;41888;44.696;10.522;2022-10-19T01:06:47;55.25;;;26.25;;
56005;SDS011;41888;44.696;10.522;2022-10-19T01:09:13;53.33;;;23.63;;
56005;SDS011;41888;44.696;10.522;2022-10-19T01:38:31;49.08;;;24.00;;
56005;SDS011;41888;44.696;10.522;2022-10-19T01:46:31;48.83;;;24.20;;
56005;SDS011;41888;44.696;10.522;2022-10-19T01:49:18;46.28;;;24.17;;
56005;SDS011;41888;44.696;10.522;2022-10-19T01:54:22;52.00;;;25.23;;
56005;SDS011;41888;44.696;10.522;2022-10-19T01:56:53;53.42;;;23.88;;
56005;SDS011;41888;44.696;10.522;2022-10-19T01:59:21;46.65;;;23.92;;
56005;SDS011;41888;44.696;10.522;2022-10-19T02:01:49;48.63;;;24.80;;
56005;SDS011;41888;44.696;10.522;2022-10-19T02:04:18;43.35;;;23.85;;
56005;SDS011;41888;44.696;10.522;2022-10-19T02:06:48;44.97;;;22.67;;
56005;SDS011;41888;44.696;10.522;2022-10-19T02:09:17;45.55;;;21.90;;
56005;SDS011;41888;44.696;10.522;2022-10-19T02:11:45;44.00;;;21.65;;
56005;SDS011;41888;44.696;10.522;2022-10-19T02:14:15;43.50;;;20.90;;
56005;SDS011;41888;44.696;10.522;2022-10-19T02:16:47;44.42;;;23.58;;
56005;SDS011;41888;44.696;10.522;2022-10-19T02:19:21;41.60;;;20.95;;
56005;SDS011;41888;44.696;10.522;2022-10-19T02:21:47;41.38;;;21.88;;
56005;SDS011;41888;44.696;10.522;2022-10-19T02:24:14;48.50;;;22.15;;
56005;SDS011;41888;44.696;10.522;2022-10-19T02:26:40;40.08;;;21.33;;
56005;SDS011;41888;44.696;10.522;2022-10-19T02:29:07;44.08;;;21.80;;
56005;SDS011;41888;44.696;10.522;2022-10-19T02:31:35;45.65;;;22.70;;
56005;SDS011;41888;44.696;10.522;2022-10-19T02:34:02;38.47;;;20.25;;
56005;SDS011;41888;44.696;10.522;2022-10-19T02:36:28;40.30;;;20.98;;
56005;SDS011;41888;44.696;10.522;2022-10-19T02:38:54;42.60;;;21.27;;
56005;SDS011;41888;44.696;10.522;2022-10-19T02:41:26;41.70;;;22.88;;
56005;SDS011;41888;44.696;10.522;2022-10-19T02:44:26;41.45;;;21.25;;
56005;SDS011;41888;44.696;10.522;2022-10-19T02:49:39;39.83;;;20.38;;
56005;SDS011;41888;44.696;10.522;2022-10-19T02:52:09;32.10;;;17.08;;
56005;SDS011;41888;44.696;10.522;2022-10-19T02:54:36;36.85;;;19.58;;
56005;SDS011;41888;44.696;10.522;2022-10-19T02:57:10;35.72;;;18.73;;
56005;SDS011;41888;44.696;10.522;2022-10-19T02:59:40;37.70;;;20.15;;
56005;SDS011;41888;44.696;10.522;2022-10-19T03:02:06;41.85;;;19.35;;
56005;SDS011;41888;44.696;10.522;2022-10-19T03:04:32;38.15;;;19.27;;
56005;SDS011;41888;44.696;10.522;2022-10-19T03:06:58;33.97;;;18.80;;
56005;SDS011;41888;44.696;10.522;2022-10-19T03:09:25;34.53;;;19.67;;
56005;SDS011;41888;44.696;10.522;2022-10-19T03:11:51;39.17;;;18.17;;
56005;SDS011;41888;44.696;10.522;2022-10-19T03:14:19;33.00;;;17.77;;
56005;SDS011;41888;44.696;10.522;2022-10-19T03:16:45;32.10;;;17.13;;
56005;SDS011;41888;44.696;10.522;2022-10-19T03:19:11;32.17;;;17.55;;
56005;SDS011;41888;44.696;10.522;2022-10-19T03:21:37;29.67;;;17.45;;
56005;SDS011;41888;44.696;10.522;2022-10-19T03:24:03;33.97;;;17.35;;
56005;SDS011;41888;44.696;10.522;2022-10-19T03:26:30;30.92;;;16.92;;
56005;SDS011;41888;44.696;10.522;2022-10-19T03:28:56;29.80;;;15.63;;
56005;SDS011;41888;44.696;10.522;2022-10-19T03:31:22;32.42;;;17.20;;
56005;SDS011;41888;44.696;10.522;2022-10-19T03:33:49;33.55;;;16.35;;
56005;SDS011;41888;44.696;10.522;2022-10-19T03:36:26;36.50;;;18.17;;
56005;SDS011;41888;44.696;10.522;2022-10-19T03:38:54;33.78;;;18.45;;
56005;SDS011;41888;44.696;10.522;2022-10-19T03:41:23;34.95;;;18.13;;
56005;SDS011;41888;44.696;10.522;2022-10-19T03:43:51;31.80;;;17.73;;
56005;SDS011;41888;44.696;10.522;2022-10-19T03:46:17;33.70;;;17.05;;
56005;SDS011;41888;44.696;10.522;2022-10-19T03:48:44;32.88;;;17.33;;
56005;SDS011;41888;44.696;10.522;2022-10-19T03:51:12;33.03;;;17.48;;
56005;SDS011;41888;44.696;10.522;2022-10-19T03:53:41;36.30;;;18.40;;
56005;SDS011;41888;44.696;10.522;2022-10-19T03:58:36;36.60;;;20.70;;
56005;SDS011;41888;44.696;10.522;2022-10-19T04:01:10;40.20;;;18.55;;
56005;SDS011;41888;44.696;10.522;2022-10-19T04:06:23;38.53;;;18.80;;
56005;SDS011;41888;44.696;10.522;2022-10-19T04:08:51;43.90;;;18.67;;
56005;SDS011;41888;44.696;10.522;2022-10-19T04:11:19;44.42;;;18.55;;
56005;SDS011;41888;44.696;10.522;2022-10-19T04:13:47;39.38;;;20.73;;
56005;SDS011;41888;44.696;10.522;2022-10-19T04:16:14;38.15;;;18.95;;
56005;SDS011;41888;44.696;10.522;2022-10-19T04:18:41;44.40;;;21.20;;
56005;SDS011;41888;44.696;10.522;2022-10-19T04:21:16;35.15;;;18.88;;
56005;SDS011;41888;44.696;10.522;2022-10-19T04:23:47;38.22;;;18.30;;
56005;SDS011;41888;44.696;10.522;2022-10-19T04:26:14;37.65;;;19.85;;
56005;SDS011;41888;44.696;10.522;2022-10-19T04:28:40;39.35;;;17.90;;
56005;SDS011;41888;44.696;10.522;2022-10-19T04:31:07;36.33;;;18.48;;
56005;SDS011;41888;44.696;10.522;2022-10-19T04:33:34;35.25;;;19.13;;
56005;SDS011;41888;44.696;10.522;2022-10-19T04:36:01;40.95;;;20.75;;
56005;SDS011;41888;44.696;10.522;2022-10-19T04:38:29;41.58;;;18.73;;
56005;SDS011;41888;44.696;10.522;2022-10-19T04:41:03;39.50;;;19.95;;
56005;SDS011;41888;44.696;10.522;2022-10-19T04:43:34;38.75;;;19.15;;
56005;SDS011;41888;44.696;10.522;2022-10-19T04:46:04;40.42;;;21.02;;
56005;SDS011;41888;44.696;10.522;2022-10-19T04:48:33;42.63;;;18.95;;
56005;SDS011;41888;44.696;10.522;2022-10-19T04:51:00;39.40;;;18.67;;
56005;SDS011;41888;44.696;10.522;2022-10-19T04:53:27;40.30;;;19.02;;
56005;SDS011;41888;44.696;10.522;2022-10-19T04:55:53;37.53;;;19.88;;
56005;SDS011;41888;44.696;10.522;2022-10-19T04:58:19;39.75;;;19.00;;
56005;SDS011;41888;44.696;10.522;2022-10-19T05:00:46;36.80;;;18.98;;
56005;SDS011;41888;44.696;10.522;2022-10-19T05:03:12;35.38;;;17.58;;
56005;SDS011;41888;44.696;10.522;2022-10-19T05:05:38;35.40;;;17.60;;
56005;SDS011;41888;44.696;10.522;2022-10-19T05:08:04;42.22;;;19.35;;
56005;SDS011;41888;44.696;10.522;2022-10-19T05:10:30;39.08;;;20.52;;
56005;SDS011;41888;44.696;10.522;2022-10-19T05:12:58;41.28;;;20.35;;
56005;SDS011;41888;44.696;10.522;2022-10-19T05:15:26;34.38;;;18.13;;
56005;SDS011;41888;44.696;10.522;2022-10-19T05:17:53;40.08;;;18.60;;
56005;SDS011;41888;44.696;10.522;2022-10-19T05:20:20;39.33;;;19.05;;
56005;SDS011;41888;44.696;10.522;2022-10-19T05:22:47;34.67;;;18.88;;
56005;SDS011;41888;44.696;10.522;2022-10-19T05:25:13;41.38;;;18.23;;
56005;SDS011;41888;44.696;10.522;2022-10-19T05:27:40;35.10;;;18.23;;
56005;SDS011;41888;44.696;10.522;2022-10-19T05:30:06;36.10;;;18.30;;
56005;SDS011;41888;44.696;10.522;2022-10-19T05:32:33;34.63;;;18.13;;
56005;SDS011;41888;44.696;10.522;2022-10-19T05:34:59;35.35;;;17.33;;
56005;SDS011;41888;44.696;10.522;2022-10-19T05:37:25;35.35;;;15.75;;
56005;SDS011;41888;44.696;10.522;2022-10-19T05:39:53;32.10;;;16.73;;
56005;SDS011;41888;44.696;10.522;2022-10-19T05:42:19;37.45;;;16.08;;
56005;SDS011;41888;44.696;10.522;2022-10-19T05:44:45;32.33;;;15.88;;
56005;SDS011;41888;44.696;10.522;2022-10-19T05:47:11;29.55;;;14.55;;
56005;SDS011;41888;44.696;10.522;2022-10-19T05:49:38;32.13;;;15.73;;
56005;SDS011;41888;44.696;10.522;2022-10-19T05:52:04;34.20;;;14.73;;
56005;SDS011;41888;44.696;10.522;2022-10-19T05:54:30;31.70;;;16.30;;
56005;SDS011;41888;44.696;10.522;2022-10-19T05:56:56;29.75;;;15.55;;
56005;SDS011;41888;44.696;10.522;2022-10-19T05:59:22;29.75;;;14.38;;
56005;SDS011;41888;44.696;10.522;2022-10-19T06:01:49;27.52;;;14.38;;
56005;SDS011;41888;44.696;10.522;2022-10-19T06:04:15;26.33;;;13.25;;
56005;SDS011;41888;44.696;10.522;2022-10-19T06:06:41;25.80;;;15.05;;
56005;SDS011;41888;44.696;10.522;2022-10-19T06:09:08;22.80;;;13.52;;
56005;SDS011;41888;44.696;10.522;2022-10-19T06:11:36;29.05;;;13.18;;
56005;SDS011;41888;44.696;10.522;2022-10-19T06:14:06;27.98;;;13.50;;
56005;SDS011;41888;44.696;10.522;2022-10-19T06:16:35;25.55;;;12.32;;
56005;SDS011;41888;44.696;10.522;2022-10-19T06:19:02;21.30;;;11.80;;
56005;SDS011;41888;44.696;10.522;2022-10-19T06:21:30;24.58;;;11.55;;
56005;SDS011;41888;44.696;10.522;2022-10-19T06:23:58;20.92;;;11.18;;
56005;SDS011;41888;44.696;10.522;2022-10-19T06:26:26;22.83;;;12.07;;
56005;SDS011;41888;44.696;10.522;2022-10-19T06:28:57;17.40;;;11.07;;
56005;SDS011;41888;44.696;10.522;2022-10-19T06:31:28;22.70;;;11.68;;
56005;SDS011;41888;44.696;10.522;2022-10-19T06:33:56;20.70;;;10.85;;
56005;SDS011;41888;44.696;10.522;2022-10-19T06:36:24;18.75;;;10.65;;
56005;SDS011;41888;44.696;10.522;2022-10-19T06:38:52;19.20;;;11.38;;
56005;SDS011;41888;44.696;10.522;2022-10-19T06:41:20;18.08;;;10.48;;
56005;SDS011;41888;44.696;10.522;2022-10-19T06:43:53;22.27;;;11.90;;
56005;SDS011;41888;44.696;10.522;2022-10-19T06:46:21;21.90;;;11.38;;
56005;SDS011;41888;44.696;10.522;2022-10-19T06:48:49;18.33;;;11.13;;
56005;SDS011;41888;44.696;10.522;2022-10-19T06:51:16;19.67;;;10.23;;
56005;SDS011;41888;44.696;10.522;2022-10-19T06:53:42;21.95;;;10.48;;
56005;SDS011;41888;44.696;10.522;2022-10-19T06:56:08;21.83;;;11.90;;
56005;SDS011;41888;44.696;10.522;2022-10-19T06:58:35;21.30;;;10.60;;
56005;SDS011;41888;44.696;10.522;2022-10-19T07:01:03;19.45;;;10.85;;
56005;SDS011;41888;44.696;10.522;2022-10-19T07:03:31;19.65;;;10.43;;
56005;SDS011;41888;44.696;10.522;2022-10-19T07:06:01;21.45;;;12.13;;
56005;SDS011;41888;44.696;10.522;2022-10-19T07:08:31;19.98;;;10.52;;
56005;SDS011;41888;44.696;10.522;2022-10-19T07:10:58;19.33;;;11.10;;
56005;SDS011;41888;44.696;10.522;2022-10-19T07:13:27;16.25;;;9.68;;
56005;SDS011;41888;44.696;10.522;2022-10-19T07:15:57;16.70;;;11.90;;
56005;SDS011;41888;44.696;10.522;2022-10-19T07:18:27;17.00;;;10.20;;
56005;SDS011;41888;44.696;10.522;2022-10-19T07:20:54;16.98;;;9.77;;
56005;SDS011;41888;44.696;10.522;2022-10-19T07:23:22;19.25;;;11.15;;
56005;SDS011;41888;44.696;10.522;2022-10-19T07:25:50;16.52;;;10.48;;
56005;SDS011;41888;44.696;10.522;2022-10-19T07:28:18;25.17;;;11.48;;
56005;SDS011;41888;44.696;10.522;2022-10-19T07:30:45;21.30;;;12.10;;
56005;SDS011;41888;44.696;10.522;2022-10-19T07:33:11;20.58;;;10.43;;
56005;SDS011;41888;44.696;10.522;2022-10-19T07:35:38;18.08;;;10.60;;
56005;SDS011;41888;44.696;10.522;2022-10-19T07:38:04;18.88;;;11.30;;
56005;SDS011;41888;44.696;10.522;2022-10-19T07:40:30;19.17;;;10.50;;
56005;SDS011;41888;44.696;10.522;2022-10-19T07:42:56;23.42;;;11.95;;
56005;SDS011;41888;44.696;10.522;2022-10-19T07:45:22;24.10;;;12.57;;
56005;SDS011;41888;44.696;10.522;2022-10-19T07:47:48;24.33;;;12.68;;
56005;SDS011;41888;44.696;10.522;2022-10-19T07:50:15;26.15;;;14.38;;
56005;SDS011;41888;44.696;10.522;2022-10-19T07:52:41;28.42;;;16.20;;
56005;SDS011;41888;44.696;10.522;2022-10-19T07:55:07;33.95;;;15.48;;
56005;SDS011;41888;44.696;10.522;2022-10-19T07:57:34;28.90;;;17.85;;
56005;SDS011;41888;44.696;10.522;2022-10-19T08:00:00;32.08;;;17.10;;
56005;SDS011;41888;44.696;10.522;2022-10-19T08:02:26;31.48;;;18.15;;
56005;SDS011;41888;44.696;10.522;2022-10-19T08:04:52;29.80;;;17.73;;
56005;SDS011;41888;44.696;10.522;2022-10-19T08:07:19;35.92;;;18.85;;
56005;SDS011;41888;44.696;10.522;2022-10-19T08:09:45;36.60;;;19.48;;
56005;SDS011;41888;44.696;10.522;2022-10-19T08:12:11;30.95;;;18.58;;
56005;SDS011;41888;44.696;10.522;2022-10-19T08:14:37;37.55;;;19.35;;
56005;SDS011;41888;44.696;10.522;2022-10-19T08:17:03;31.02;;;18.65;;
56005;SDS011;41888;44.696;10.522;2022-10-19T08:19:29;29.52;;;17.15;;
56005;SDS011;41888;44.696;10.522;2022-10-19T08:21:56;28.88;;;17.23;;
56005;SDS011;41888;44.696;10.522;2022-10-19T08:24:22;29.55;;;17.58;;
56005;SDS011;41888;44.696;10.522;2022-10-19T08:26:48;28.00;;;17.13;;
56005;SDS011;41888;44.696;10.522;2022-10-19T08:29:16;32.42;;;16.13;;
56005;SDS011;41888;44.696;10.522;2022-10-19T08:31:44;32.25;;;18.98;;
56005;SDS011;41888;44.696;10.522;2022-10-19T08:34:12;29.25;;;17.35;;
56005;SDS011;41888;44.696;10.522;2022-10-19T08:36:38;32.30;;;17.77;;
56005;SDS011;41888;44.696;10.522;2022-10-19T08:39:06;31.17;;;17.50;;
56005;SDS011;41888;44.696;10.522;2022-10-19T08:44:13;30.58;;;17.75;;
56005;SDS011;41888;44.696;10.522;2022-10-19T08:50:02;27.30;;;16.05;;
56005;SDS011;41888;44.696;10.522;2022-10-19T08:52:48;27.90;;;16.40;;
56005;SDS011;41888;44.696;10.522;2022-10-19T08:55:39;34.97;;;19.13;;
56005;SDS011;41888;44.696;10.522;2022-10-19T09:01:13;35.03;;;20.13;;
56005;SDS011;41888;44.696;10.522;2022-10-19T09:03:47;35.25;;;20.35;;
56005;SDS011;41888;44.696;10.522;2022-10-19T09:09:14;37.47;;;20.73;;
56005;SDS011;41888;44.696;10.522;2022-10-19T09:11:46;35.97;;;21.92;;
56005;SDS011;41888;44.696;10.522;2022-10-19T09:14:22;34.85;;;21.23;;
56005;SDS011;41888;44.696;10.522;2022-10-19T09:17:11;43.28;;;24.45;;
56005;SDS011;41888;44.696;10.522;2022-10-19T09:19:40;34.75;;;23.63;;
56005;SDS011;41888;44.696;10.522;2022-10-19T09:22:07;31.88;;;20.33;;
56005;SDS011;41888;44.696;10.522;2022-10-19T09:27:26;33.38;;;20.60;;
56005;SDS011;41888;44.696;10.522;2022-10-19T09:30:02;35.25;;;22.50;;
56005;SDS011;41888;44.696;10.522;2022-10-19T09:32:34;34.13;;;21.75;;
56005;SDS011;41888;44.696;10.522;2022-10-19T09:35:04;40.85;;;23.38;;
56005;SDS011;41888;44.696;10.522;2022-10-19T09:37:51;35.67;;;21.75;;
56005;SDS011;41888;44.696;10.522;2022-10-19T09:40:23;37.28;;;22.23;;
56005;SDS011;41888;44.696;10.522;2022-10-19T09:42:51;36.67;;;21.73;;
56005;SDS011;41888;44.696;10.522;2022-10-19T09:45:39;40.42;;;23.35;;
56005;SDS011;41888;44.696;10.522;2022-10-19T09:48:19;43.88;;;24.60;;
56005;SDS011;41888;44.696;10.522;2022-10-19T09:51:02;36.40;;;23.50;;
56005;SDS011;41888;44.696;10.522;2022-10-19T09:53:36;36.33;;;23.38;;
56005;SDS011;41888;44.696;10.522;2022-10-19T09:56:08;39.55;;;25.17;;
56005;SDS011;41888;44.696;10.522;2022-10-19T09:58:47;40.72;;;25.10;;
56005;SDS011;41888;44.696;10.522;2022-10-19T10:01:29;37.35;;;24.08;;
56005;SDS011;41888;44.696;10.522;2022-10-19T10:04:07;38.80;;;23.90;;
56005;SDS011;41888;44.696;10.522;2022-10-19T10:06:37;44.33;;;25.05;;
56005;SDS011;41888;44.696;10.522;2022-10-19T10:09:04;42.30;;;27.48;;
56005;SDS011;41888;44.696;10.522;2022-10-19T10:11:32;45.58;;;27.23;;
56005;SDS011;41888;44.696;10.522;2022-10-19T10:14:35;42.33;;;24.80;;
56005;SDS011;41888;44.696;10.522;2022-10-19T10:17:00;43.58;;;27.17;;
56005;SDS011;41888;44.696;10.522;2022-10-19T10:19:27;44.63;;;27.70;;
56005;SDS011;41888;44.696;10.522;2022-10-19T10:21:57;42.10;;;26.60;;
56005;SDS011;41888;44.696;10.522;2022-10-19T10:26:55;48.97;;;28.35;;
56005;SDS011;41888;44.696;10.522;2022-10-19T10:29:36;51.42;;;30.33;;
56005;SDS011;41888;44.696;10.522;2022-10-19T10:32:06;41.03;;;26.95;;
56005;SDS011;41888;44.696;10.522;2022-10-19T10:40:04;40.80;;;25.67;;
56005;SDS011;41888;44.696;10.522;2022-10-19T10:42:43;44.45;;;26.00;;
56005;SDS011;41888;44.696;10.522;2022-10-19T10:45:19;44.28;;;27.02;;
56005;SDS011;41888;44.696;10.522;2022-10-19T10:47:47;40.70;;;25.00;;
56005;SDS011;41888;44.696;10.522;2022-10-19T10:50:15;40.25;;;24.48;;
56005;SDS011;41888;44.696;10.522;2022-10-19T10:52:56;37.97;;;24.60;;
56005;SDS011;41888;44.696;10.522;2022-10-19T10:55:30;43.15;;;24.73;;
56005;SDS011;41888;44.696;10.522;2022-10-19T10:58:01;42.88;;;26.92;;
56005;SDS011;41888;44.696;10.522;2022-10-19T11:00:39;42.90;;;26.63;;
56005;SDS011;41888;44.696;10.522;2022-10-19T11:03:25;39.08;;;24.67;;
56005;SDS011;41888;44.696;10.522;2022-10-19T11:05:59;42.95;;;24.88;;
56005;SDS011;41888;44.696;10.522;2022-10-19T11:08:35;41.47;;;27.38;;
56005;SDS011;41888;44.696;10.522;2022-10-19T11:11:38;44.20;;;26.27;;
56005;SDS011;41888;44.696;10.522;2022-10-19T11:14:23;47.35;;;26.48;;
56005;SDS011;41888;44.696;10.522;2022-10-19T11:16:54;46.97;;;26.17;;
56005;SDS011;41888;44.696;10.522;2022-10-19T11:19:25;42.25;;;26.77;;
56005;SDS011;41888;44.696;10.522;2022-10-19T11:24:41;45.28;;;28.30;;
56005;SDS011;41888;44.696;10.522;2022-10-19T11:27:28;46.78;;;29.20;;
56005;SDS011;41888;44.696;10.522;2022-10-19T11:30:12;54.45;;;30.02;;
56005;SDS011;41888;44.696;10.522;2022-10-19T11:32:51;49.50;;;28.23;;
56005;SDS011;41888;44.696;10.522;2022-10-19T11:35:46;48.75;;;30.17;;
56005;SDS011;41888;44.696;10.522;2022-10-19T11:40:59;50.30;;;29.02;;
56005;SDS011;41888;44.696;10.522;2022-10-19T11:46:33;49.03;;;30.33;;
56005;SDS011;41888;44.696;10.522;2022-10-19T11:57:58;50.83;;;31.08;;
56005;SDS011;41888;44.696;10.522;2022-10-19T12:00:37;50.17;;;29.27;;
56005;SDS011;41888;44.696;10.522;2022-10-19T12:03:31;51.28;;;30.33;;
56005;SDS011;41888;44.696;10.522;2022-10-19T12:14:26;52.78;;;29.88;;
56005;SDS011;41888;44.696;10.522;2022-10-19T12:17:00;55.08;;;30.85;;
56005;SDS011;41888;44.696;10.522;2022-10-19T12:19:33;53.03;;;29.63;;
56005;SDS011;41888;44.696;10.522;2022-10-19T12:22:05;51.42;;;28.20;;
56005;SDS011;41888;44.696;10.522;2022-10-19T12:24:37;50.97;;;30.05;;
56005;SDS011;41888;44.696;10.522;2022-10-19T12:27:03;52.15;;;30.23;;
56005;SDS011;41888;44.696;10.522;2022-10-19T12:29:32;46.47;;;27.98;;
56005;SDS011;41888;44.696;10.522;2022-10-19T12:32:03;49.08;;;28.35;;
56005;SDS011;41888;44.696;10.522;2022-10-19T12:37:25;53.40;;;30.20;;
56005;SDS011;41888;44.696;10.522;2022-10-19T12:40:04;48.90;;;28.50;;
56005;SDS011;41888;44.696;10.522;2022-10-19T12:50:57;49.03;;;29.05;;
56005;SDS011;41888;44.696;10.522;2022-10-19T12:53:37;45.17;;;28.38;;
56005;SDS011;41888;44.696;10.522;2022-10-19T12:56:14;47.00;;;26.98;;
56005;SDS011;41888;44.696;10.522;2022-10-19T12:58:51;44.80;;;26.30;;
56005;SDS011;41888;44.696;10.522;2022-10-19T13:01:39;43.92;;;27.92;;
56005;SDS011;41888;44.696;10.522;2022-10-19T13:04:22;44.83;;;27.63;;
56005;SDS011;41888;44.696;10.522;2022-10-19T13:09:41;45.03;;;25.45;;
56005;SDS011;41888;44.696;10.522;2022-10-19T13:17:08;48.08;;;27.23;;
56005;SDS011;41888;44.696;10.522;2022-10-19T13:19:35;44.53;;;26.08;;
56005;SDS011;41888;44.696;10.522;2022-10-19T13:22:11;40.22;;;25.13;;
56005;SDS011;41888;44.696;10.522;2022-10-19T13:38:33;42.28;;;23.20;;
56005;SDS011;41888;44.696;10.522;2022-10-19T13:43:31;43.45;;;25.15;;
56005;SDS011;41888;44.696;10.522;2022-10-19T13:46:21;38.50;;;25.10;;
56005;SDS011;41888;44.696;10.522;2022-10-19T13:48:58;35.53;;;22.65;;
56005;SDS011;41888;44.696;10.522;2022-10-19T14:08:00;39.30;;;23.42;;
56005;SDS011;41888;44.696;10.522;2022-10-19T14:10:48;36.92;;;22.80;;
56005;SDS011;41888;44.696;10.522;2022-10-19T14:13:23;37.33;;;22.27;;
56005;SDS011;41888;44.696;10.522;2022-10-19T14:15:52;40.03;;;23.90;;
56005;SDS011;41888;44.696;10.522;2022-10-19T14:18:21;43.30;;;24.05;;
56005;SDS011;41888;44.696;10.522;2022-10-19T14:21:02;41.50;;;23.15;;
56005;SDS011;41888;44.696;10.522;2022-10-19T14:23:34;39.93;;;23.97;;
56005;SDS011;41888;44.696;10.522;2022-10-19T14:26:06;41.75;;;23.25;;
56005;SDS011;41888;44.696;10.522;2022-10-19T14:28:39;37.85;;;21.73;;
56005;SDS011;41888;44.696;10.522;2022-10-19T14:31:15;38.63;;;22.77;;
56005;SDS011;41888;44.696;10.522;2022-10-19T14:33:46;42.45;;;24.88;;
56005;SDS011;41888;44.696;10.522;2022-10-19T14:36:15;36.72;;;21.98;;
56005;SDS011;41888;44.696;10.522;2022-10-19T14:38:52;33.83;;;21.73;;
56005;SDS011;41888;44.696;10.522;2022-10-19T14:41:20;41.63;;;22.83;;
56005;SDS011;41888;44.696;10.522;2022-10-19T14:43:56;38.65;;;23.33;;
56005;SDS011;41888;44.696;10.522;2022-10-19T14:46:33;41.75;;;24.80;;
56005;SDS011;41888;44.696;10.522;2022-10-19T14:49:00;46.05;;;25.60;;
56005;SDS011;41888;44.696;10.522;2022-10-19T14:54:05;40.72;;;23.25;;
56005;SDS011;41888;44.696;10.522;2022-10-19T14:57:18;40.55;;;23.52;;
56005;SDS011;41888;44.696;10.522;2022-10-19T15:01:51;41.17;;;23.85;;
56005;SDS011;41888;44.696;10.522;2022-10-19T15:04:23;43.50;;;23.75;;
56005;SDS011;41888;44.696;10.522;2022-10-19T15:06:52;39.40;;;24.60;;
56005;SDS011;41888;44.696;10.522;2022-10-19T15:09:22;38.15;;;23.52;;
56005;SDS011;41888;44.696;10.522;2022-10-19T15:11:52;39.78;;;23.35;;
56005;SDS011;41888;44.696;10.522;2022-10-19T15:14:24;37.10;;;21.80;;
56005;SDS011;41888;44.696;10.522;2022-10-19T15:16:58;38.20;;;22.02;;
56005;SDS011;41888;44.696;10.522;2022-10-19T15:22:05;40.05;;;23.95;;
56005;SDS011;41888;44.696;10.522;2022-10-19T15:24:38;38.00;;;22.30;;
56005;SDS011;41888;44.696;10.522;2022-10-19T15:27:18;35.08;;;20.38;;
56005;SDS011;41888;44.696;10.522;2022-10-19T15:29:53;35.63;;;20.92;;
56005;SDS011;41888;44.696;10.522;2022-10-19T15:32:21;43.20;;;23.48;;
56005;SDS011;41888;44.696;10.522;2022-10-19T15:34:50;41.85;;;23.35;;
56005;SDS011;41888;44.696;10.522;2022-10-19T15:37:20;37.05;;;21.35;;
56005;SDS011;41888;44.696;10.522;2022-10-19T15:39:48;37.20;;;22.02;;
56005;SDS011;41888;44.696;10.522;2022-10-19T15:50:36;37.92;;;22.45;;
56005;SDS011;41888;44.696;10.522;2022-10-19T15:53:12;42.80;;;23.63;;
56005;SDS011;41888;44.696;10.522;2022-10-19T15:55:39;35.58;;;21.55;;
56005;SDS011;41888;44.696;10.522;2022-10-19T15:58:05;42.55;;;22.70;;
56005;SDS011;41888;44.696;10.522;2022-10-19T16:00:33;38.95;;;22.55;;
56005;SDS011;41888;44.696;10.522;2022-10-19T16:02:59;38.80;;;22.02;;
56005;SDS011;41888;44.696;10.522;2022-10-19T16:05:25;35.40;;;19.83;;
56005;SDS011;41888;44.696;10.522;2022-10-19T16:07:51;34.60;;;20.30;;
56005;SDS011;41888;44.696;10.522;2022-10-19T16:10:19;36.17;;;19.50;;
56005;SDS011;41888;44.696;10.522;2022-10-19T16:12:48;35.95;;;20.05;;
56005;SDS011;41888;44.696;10.522;2022-10-19T16:15:15;35.05;;;19.83;;
56005;SDS011;41888;44.696;10.522;2022-10-19T16:17:47;32.47;;;19.00;;
56005;SDS011;41888;44.696;10.522;2022-10-19T16:20:18;31.92;;;18.88;;
56005;SDS011;41888;44.696;10.522;2022-10-19T16:22:45;31.63;;;19.30;;
56005;SDS011;41888;44.696;10.522;2022-10-19T16:25:12;37.75;;;19.52;;
56005;SDS011;41888;44.696;10.522;2022-10-19T16:27:39;35.22;;;18.85;;
56005;SDS011;41888;44.696;10.522;2022-10-19T16:30:06;32.75;;;19.48;;
56005;SDS011;41888;44.696;10.522;2022-10-19T16:32:32;36.90;;;20.25;;
56005;SDS011;41888;44.696;10.522;2022-10-19T16:34:59;39.13;;;20.55;;
56005;SDS011;41888;44.696;10.522;2022-10-19T16:37:25;38.95;;;20.35;;
56005;SDS011;41888;44.696;10.522;2022-10-19T16:39:52;31.63;;;19.45;;
56005;SDS011;41888;44.696;10.522;2022-10-19T16:42:18;34.42;;;21.35;;
56005;SDS011;41888;44.696;10.522;2022-10-19T16:44:45;37.75;;;21.75;;
56005;SDS011;41888;44.696;10.522;2022-10-19T16:47:11;39.72;;;21.02;;
56005;SDS011;41888;44.696;10.522;2022-10-19T16:49:37;37.75;;;21.58;;
56005;SDS011;41888;44.696;10.522;2022-10-19T16:52:03;35.15;;;20.83;;
56005;SDS011;41888;44.696;10.522;2022-10-19T16:54:30;41.03;;;21.67;;
56005;SDS011;41888;44.696;10.522;2022-10-19T16:56:56;38.42;;;23.08;;
56005;SDS011;41888;44.696;10.522;2022-10-19T16:59:23;37.72;;;20.77;;
56005;SDS011;41888;44.696;10.522;2022-10-19T17:01:49;40.63;;;23.02;;
56005;SDS011;41888;44.696;10.522;2022-10-19T17:04:15;39.08;;;23.23;;
56005;SDS011;41888;44.696;10.522;2022-10-19T17:06:42;37.35;;;22.35;;